createdAt,value
2022-11-19T00:00:09.841Z,955.28
2022-11-19T00:01:09.877Z,955.26
2022-11-19T00:02:09.851Z,955.29
2022-11-19T00:03:09.810Z,955.26
2022-11-19T00:04:09.784Z,955.18
2022-11-19T00:05:09.787Z,955.17
2022-11-19T00:06:09.781Z,955.23
2022-11-19T00:07:09.906Z,955.24
2022-11-19T00:08:09.742Z,955.20
2022-11-19T00:09:09.749Z,955.12
2022-11-19T00:10:09.717Z,955.21
2022-11-19T00:11:10.106Z,955.17
2022-11-19T00:12:09.720Z,955.16
2022-11-19T00:13:09.700Z,955.22
2022-11-19T00:14:09.683Z,955.11
2022-11-19T00:15:09.675Z,955.11
2022-11-19T00:16:09.655Z,955.15
2022-11-19T00:17:09.656Z,955.20
2022-11-19T00:18:09.657Z,955.15
2022-11-19T00:19:09.616Z,955.09
2022-11-19T00:20:09.634Z,955.16
2022-11-19T00:21:09.591Z,955.14
2022-11-19T00:22:09.594Z,955.08
2022-11-19T00:23:09.590Z,955.18
2022-11-19T00:24:09.600Z,955.09
2022-11-19T00:25:09.561Z,955.13
2022-11-19T00:26:09.565Z,955.15
2022-11-19T00:27:09.556Z,955.14
2022-11-19T00:28:09.532Z,955.13
2022-11-19T00:29:10.864Z,955.12
2022-11-19T00:30:19.912Z,955.14
2022-11-19T00:31:10.478Z,955.13
2022-11-19T00:32:09.520Z,955.10
2022-11-19T00:33:09.485Z,955.12
2022-11-19T00:34:09.459Z,955.12
2022-11-19T00:35:09.466Z,955.11
2022-11-19T00:36:09.425Z,955.09
2022-11-19T00:37:09.464Z,955.10
2022-11-19T00:38:09.451Z,955.07
2022-11-19T00:39:09.454Z,955.09
2022-11-19T00:40:09.545Z,955.08
2022-11-19T00:41:09.368Z,955.11
2022-11-19T00:42:09.362Z,955.13
2022-11-19T00:43:09.352Z,955.12
2022-11-19T00:44:09.336Z,955.10
2022-11-19T00:45:09.342Z,955.13
2022-11-19T00:46:09.341Z,955.18
2022-11-19T00:47:09.301Z,955.13
2022-11-19T00:48:09.305Z,955.15
2022-11-19T00:49:09.302Z,955.15
2022-11-19T00:50:09.274Z,955.22
2022-11-19T00:51:09.270Z,955.17
2022-11-19T00:52:09.290Z,955.22
2022-11-19T00:53:09.236Z,955.18
2022-11-19T00:54:09.289Z,955.21
2022-11-19T00:55:09.246Z,955.17
2022-11-19T00:56:09.213Z,955.21
2022-11-19T00:57:09.208Z,955.24
2022-11-19T00:58:09.187Z,955.28
2022-11-19T00:59:09.179Z,955.22
2022-11-19T01:00:09.183Z,955.25
2022-11-19T01:01:09.255Z,955.25
2022-11-19T01:02:09.150Z,955.21
2022-11-19T01:03:09.145Z,955.21
2022-11-19T01:04:09.164Z,955.28
2022-11-19T01:05:09.115Z,955.25
2022-11-19T01:06:09.128Z,955.26
2022-11-19T01:07:09.122Z,955.28
2022-11-19T01:08:09.078Z,955.31
2022-11-19T01:09:09.057Z,955.33
2022-11-19T01:10:09.050Z,955.31
2022-11-19T01:11:09.099Z,955.32
2022-11-19T01:12:09.057Z,955.36
2022-11-19T01:13:09.019Z,955.25
2022-11-19T01:14:09.016Z,955.31
2022-11-19T01:15:08.988Z,955.36
2022-11-19T01:16:09.003Z,955.30
2022-11-19T01:17:08.987Z,955.37
2022-11-19T01:18:08.956Z,955.40
2022-11-19T01:19:08.959Z,955.34
2022-11-19T01:20:08.992Z,955.37
2022-11-19T01:21:08.962Z,955.40
2022-11-19T01:22:08.921Z,955.36
2022-11-19T01:23:08.924Z,955.39
2022-11-19T01:24:08.892Z,955.36
2022-11-19T01:25:08.887Z,955.40
2022-11-19T01:26:08.866Z,955.39
2022-11-19T01:27:09.023Z,955.35
2022-11-19T01:28:08.841Z,955.38
2022-11-19T01:29:08.885Z,955.32
2022-11-19T01:30:08.828Z,955.36
2022-11-19T01:31:08.832Z,955.36
2022-11-19T01:32:08.827Z,955.37
2022-11-19T01:33:08.793Z,955.34
2022-11-19T01:34:08.775Z,955.35
2022-11-19T01:35:08.801Z,955.39
2022-11-19T01:36:08.768Z,955.35
2022-11-19T01:37:08.769Z,955.36
2022-11-19T01:38:08.768Z,955.38
2022-11-19T01:39:08.749Z,955.36
2022-11-19T01:40:08.711Z,955.38
2022-11-19T01:41:08.708Z,955.38
2022-11-19T01:42:08.702Z,955.42
2022-11-19T01:43:08.705Z,955.38
2022-11-19T01:44:08.703Z,955.37
2022-11-19T01:45:08.660Z,955.41
2022-11-19T01:46:08.692Z,955.40
2022-11-19T01:47:08.649Z,955.42
2022-11-19T01:48:08.629Z,955.47
2022-11-19T01:49:08.608Z,955.49
2022-11-19T01:50:08.606Z,955.47
2022-11-19T01:51:08.586Z,955.50
2022-11-19T01:52:08.661Z,955.46
2022-11-19T01:53:08.574Z,955.46
2022-11-19T01:54:08.566Z,955.47
2022-11-19T01:55:08.541Z,955.49
2022-11-19T01:56:08.542Z,955.51
2022-11-19T01:57:08.548Z,955.49
2022-11-19T01:58:08.521Z,955.53
2022-11-19T01:59:08.535Z,955.50
2022-11-19T02:00:08.509Z,955.48
2022-11-19T02:01:08.518Z,955.52
2022-11-19T02:02:08.479Z,955.57
2022-11-19T02:03:08.458Z,955.55
2022-11-19T02:04:08.462Z,955.58
2022-11-19T02:05:08.450Z,955.53
2022-11-19T02:06:08.421Z,955.53
2022-11-19T02:07:08.480Z,955.54
2022-11-19T02:08:08.408Z,955.55
2022-11-19T02:09:08.402Z,955.53
2022-11-19T02:10:08.409Z,955.52
2022-11-19T02:11:08.375Z,955.48
2022-11-19T02:12:08.389Z,955.46
2022-11-19T02:13:08.391Z,955.48
2022-11-19T02:14:08.327Z,955.50
2022-11-19T02:15:08.338Z,955.49
2022-11-19T02:16:08.345Z,955.59
2022-11-19T02:17:08.327Z,955.49
2022-11-19T02:18:08.284Z,955.53
2022-11-19T02:19:08.295Z,955.52
2022-11-19T02:20:08.302Z,955.48
2022-11-19T02:21:08.250Z,955.48
2022-11-19T02:22:08.256Z,955.46
2022-11-19T02:23:08.278Z,955.46
2022-11-19T02:24:08.220Z,955.42
2022-11-19T02:25:08.205Z,955.47
2022-11-19T02:26:08.207Z,955.46
2022-11-19T02:27:08.188Z,955.53
2022-11-19T02:28:08.203Z,955.54
2022-11-19T02:29:08.201Z,955.49
2022-11-19T02:30:08.159Z,955.52
2022-11-19T02:31:08.158Z,955.51
2022-11-19T02:32:08.141Z,955.56
2022-11-19T02:33:08.130Z,955.56
2022-11-19T02:34:08.132Z,955.59
2022-11-19T02:35:08.093Z,955.59
2022-11-19T02:36:08.144Z,955.55
2022-11-19T02:37:08.099Z,955.53
2022-11-19T02:38:08.090Z,955.51
2022-11-19T02:39:08.067Z,955.54
2022-11-19T02:40:08.037Z,955.52
2022-11-19T02:41:08.077Z,955.50
2022-11-19T02:42:08.012Z,955.57
2022-11-19T02:43:08.023Z,955.53
2022-11-19T02:44:08.004Z,955.50
2022-11-19T02:45:07.991Z,955.54
2022-11-19T02:46:08.009Z,955.52
2022-11-19T02:47:07.985Z,955.54
2022-11-19T02:48:07.977Z,955.54
2022-11-19T02:49:07.968Z,955.57
2022-11-19T02:50:07.934Z,955.60
2022-11-19T02:51:07.939Z,955.55
2022-11-19T02:52:07.903Z,955.57
2022-11-19T02:53:07.908Z,955.56
2022-11-19T02:54:07.885Z,955.58
2022-11-19T02:55:08.270Z,955.61
2022-11-19T02:56:07.872Z,955.56
2022-11-19T02:57:07.864Z,955.53
2022-11-19T02:58:07.849Z,955.59
2022-11-19T02:59:07.831Z,955.55
2022-11-19T03:00:07.817Z,955.51
2022-11-19T03:01:07.896Z,955.51
2022-11-19T03:02:07.798Z,955.56
2022-11-19T03:03:07.886Z,955.52
2022-11-19T03:04:07.783Z,955.51
2022-11-19T03:05:07.785Z,955.51
2022-11-19T03:06:07.757Z,955.52
2022-11-19T03:07:07.777Z,955.56
2022-11-19T03:08:07.738Z,955.46
2022-11-19T03:09:07.754Z,955.52
2022-11-19T03:10:07.705Z,955.53
2022-11-19T03:11:07.697Z,955.58
2022-11-19T03:12:07.704Z,955.58
2022-11-19T03:13:07.692Z,955.66
2022-11-19T03:14:07.674Z,955.64
2022-11-19T03:15:07.649Z,955.62
2022-11-19T03:16:07.631Z,955.62
2022-11-19T03:17:07.663Z,955.62
2022-11-19T03:18:07.611Z,955.61
2022-11-19T03:19:07.668Z,955.56
2022-11-19T03:20:07.587Z,955.63
2022-11-19T03:21:07.587Z,955.58
2022-11-19T03:22:07.565Z,955.59
2022-11-19T03:23:07.565Z,955.59
2022-11-19T03:24:07.552Z,955.62
2022-11-19T03:25:07.584Z,955.62
2022-11-19T03:26:07.523Z,955.65
2022-11-19T03:27:07.512Z,955.64
2022-11-19T03:28:07.503Z,955.64
2022-11-19T03:29:07.487Z,955.65
2022-11-19T03:30:07.492Z,955.65
2022-11-19T03:31:07.503Z,955.69
2022-11-19T03:32:07.458Z,955.69
2022-11-19T03:33:07.459Z,955.68
2022-11-19T03:34:07.443Z,955.66
2022-11-19T03:35:07.545Z,955.66
2022-11-19T03:36:07.425Z,955.70
2022-11-19T03:37:07.400Z,955.73
2022-11-19T03:38:07.436Z,955.70
2022-11-19T03:39:07.377Z,955.75
2022-11-19T03:40:07.393Z,955.72
2022-11-19T03:41:07.358Z,955.73
2022-11-19T03:42:07.361Z,955.72
2022-11-19T03:43:07.333Z,955.79
2022-11-19T03:44:07.338Z,955.80
2022-11-19T03:45:07.324Z,955.69
2022-11-19T03:46:07.321Z,955.71
2022-11-19T03:47:07.298Z,955.74
2022-11-19T03:48:07.305Z,955.71
2022-11-19T03:49:07.269Z,955.72
2022-11-19T03:50:07.277Z,955.73
2022-11-19T03:51:07.259Z,955.76
2022-11-19T03:52:07.264Z,955.76
2022-11-19T03:53:07.234Z,955.78
2022-11-19T03:54:07.244Z,955.75
2022-11-19T03:55:07.211Z,955.73
2022-11-19T03:56:07.209Z,955.80
2022-11-19T03:57:07.181Z,955.83
2022-11-19T03:58:07.163Z,955.77
2022-11-19T03:59:08.557Z,955.82
2022-11-19T04:00:07.168Z,955.82
2022-11-19T04:01:07.131Z,955.86
2022-11-19T04:02:07.191Z,955.88
2022-11-19T04:03:07.108Z,955.86
2022-11-19T04:04:07.113Z,955.90
2022-11-19T04:05:07.088Z,955.89
2022-11-19T04:06:07.082Z,955.91
2022-11-19T04:07:07.163Z,955.89
2022-11-19T04:08:07.117Z,955.92
2022-11-19T04:09:07.043Z,955.90
2022-11-19T04:10:07.041Z,955.86
2022-11-19T04:11:36.792Z,955.93
2022-11-19T04:12:36.776Z,955.89
2022-11-19T04:13:36.758Z,955.89
2022-11-19T04:14:36.738Z,955.89
2022-11-19T04:15:36.773Z,955.92
2022-11-19T04:16:36.714Z,955.89
2022-11-19T04:17:36.725Z,955.92
2022-11-19T04:18:36.692Z,955.99
2022-11-19T04:19:36.702Z,955.95
2022-11-19T04:20:36.710Z,955.99
2022-11-19T04:21:36.661Z,956.00
2022-11-19T04:22:45.648Z,955.96
2022-11-19T04:23:36.644Z,956.00
2022-11-19T04:24:36.629Z,955.97
2022-11-19T04:25:36.638Z,955.97
2022-11-19T04:26:36.608Z,955.96
2022-11-19T04:27:36.598Z,955.99
2022-11-19T04:28:36.606Z,955.97
2022-11-19T04:29:36.584Z,955.94
2022-11-19T04:30:36.586Z,955.99
2022-11-19T04:31:36.605Z,956.01
2022-11-19T04:32:36.544Z,955.94
2022-11-19T04:33:36.526Z,956.00
2022-11-19T04:34:36.511Z,956.01
2022-11-19T04:35:36.532Z,955.97
2022-11-19T04:36:36.510Z,956.01
2022-11-19T04:37:36.496Z,955.98
2022-11-19T04:38:36.502Z,956.01
2022-11-19T04:39:36.458Z,955.97
2022-11-19T04:40:36.476Z,955.93
2022-11-19T04:41:36.441Z,955.96
2022-11-19T04:42:36.463Z,955.98
2022-11-19T04:43:36.429Z,955.94
2022-11-19T04:44:36.419Z,955.99
2022-11-19T04:45:36.393Z,955.97
2022-11-19T04:46:36.394Z,955.93
2022-11-19T04:47:36.372Z,955.91
2022-11-19T04:48:36.366Z,955.94
2022-11-19T04:49:36.404Z,955.91
2022-11-19T04:50:36.337Z,955.95
2022-11-19T04:51:36.334Z,955.90
2022-11-19T04:52:40.623Z,955.98
2022-11-19T04:53:36.310Z,955.98
2022-11-19T04:54:36.337Z,956.00
2022-11-19T04:55:36.318Z,955.98
2022-11-19T04:56:36.331Z,956.02
2022-11-19T04:57:36.259Z,956.04
2022-11-19T04:58:36.243Z,956.06
2022-11-19T04:59:36.256Z,956.09
2022-11-19T05:00:36.222Z,956.09
2022-11-19T05:01:36.258Z,956.07
2022-11-19T05:02:36.217Z,956.14
2022-11-19T05:03:36.200Z,956.08
2022-11-19T05:04:36.212Z,956.11
2022-11-19T05:05:36.177Z,956.10
2022-11-19T05:06:36.187Z,956.06
2022-11-19T05:07:36.203Z,956.07
2022-11-19T05:08:36.232Z,956.08
2022-11-19T05:09:36.153Z,956.08
2022-11-19T05:10:36.138Z,956.10
2022-11-19T05:11:36.124Z,956.05
2022-11-19T05:12:36.128Z,956.10
2022-11-19T05:13:36.138Z,956.10
2022-11-19T05:14:36.066Z,956.05
2022-11-19T05:15:36.066Z,956.07
2022-11-19T05:16:36.056Z,956.10
2022-11-19T05:17:36.059Z,956.04
2022-11-19T05:18:36.065Z,956.09
2022-11-19T05:19:36.033Z,956.06
2022-11-19T05:20:36.005Z,956.06
2022-11-19T05:21:36.113Z,956.06
2022-11-19T05:22:35.984Z,956.06
2022-11-19T05:23:35.988Z,956.07
2022-11-19T05:24:36.000Z,956.08
2022-11-19T05:25:36.007Z,956.04
2022-11-19T05:26:35.961Z,956.04
2022-11-19T05:27:35.969Z,956.05
2022-11-19T05:28:39.971Z,956.13
2022-11-19T05:29:35.935Z,956.07
2022-11-19T05:30:35.887Z,956.06
2022-11-19T05:31:35.877Z,956.10
2022-11-19T05:32:35.910Z,956.10
2022-11-19T05:33:35.891Z,956.06
2022-11-19T05:34:35.857Z,956.12
2022-11-19T05:35:35.898Z,956.08
2022-11-19T05:36:35.819Z,956.13
2022-11-19T05:37:35.810Z,956.09
2022-11-19T05:38:35.828Z,956.13
2022-11-19T05:39:35.798Z,956.16
2022-11-19T05:40:35.812Z,956.12
2022-11-19T05:41:35.765Z,956.12
2022-11-19T05:42:35.769Z,956.19
2022-11-19T05:43:35.758Z,956.17
2022-11-19T05:44:35.764Z,956.18
2022-11-19T05:45:35.763Z,956.18
2022-11-19T05:46:35.736Z,956.24
2022-11-19T05:47:35.757Z,956.25
2022-11-19T05:48:35.685Z,956.21
2022-11-19T05:49:35.690Z,956.23
2022-11-19T05:50:35.696Z,956.24
2022-11-19T05:51:35.668Z,956.22
2022-11-19T05:52:35.641Z,956.19
2022-11-19T05:53:35.628Z,956.21
2022-11-19T05:54:35.635Z,956.19
2022-11-19T05:55:35.639Z,956.21
2022-11-19T05:56:35.647Z,956.18
2022-11-19T05:57:35.606Z,956.17
2022-11-19T05:58:35.617Z,956.21
2022-11-19T05:59:38.497Z,956.22
2022-11-19T06:00:36.587Z,956.25
2022-11-19T06:01:35.563Z,956.17
2022-11-19T06:02:35.596Z,956.18
2022-11-19T06:03:35.547Z,956.26
2022-11-19T06:04:35.506Z,956.24
2022-11-19T06:05:40.015Z,956.26
2022-11-19T06:06:36.497Z,956.29
2022-11-19T06:07:35.540Z,956.34
2022-11-19T06:08:35.507Z,956.34
2022-11-19T06:09:35.450Z,956.38
2022-11-19T06:10:35.486Z,956.39
2022-11-19T06:11:35.429Z,956.35
2022-11-19T06:12:35.443Z,956.40
2022-11-19T06:13:35.419Z,956.38
2022-11-19T06:14:35.520Z,956.40
2022-11-19T06:15:35.384Z,956.42
2022-11-19T06:16:35.387Z,956.40
2022-11-19T06:17:35.367Z,956.43
2022-11-19T06:18:35.352Z,956.47
2022-11-19T06:19:35.347Z,956.43
2022-11-19T06:20:35.365Z,956.44
2022-11-19T06:21:35.365Z,956.43
2022-11-19T06:22:35.308Z,956.47
2022-11-19T06:23:35.304Z,956.44
2022-11-19T06:24:35.286Z,956.42
2022-11-19T06:25:35.295Z,956.46
2022-11-19T06:26:35.294Z,956.43
2022-11-19T06:27:35.310Z,956.47
2022-11-19T06:28:35.237Z,956.46
2022-11-19T06:29:35.246Z,956.43
2022-11-19T06:30:35.258Z,956.49
2022-11-19T06:31:35.234Z,956.48
2022-11-19T06:32:35.229Z,956.45
2022-11-19T06:33:35.180Z,956.47
2022-11-19T06:34:35.184Z,956.48
2022-11-19T06:35:35.158Z,956.53
2022-11-19T06:36:40.979Z,956.52
2022-11-19T06:37:36.193Z,956.52
2022-11-19T06:38:35.126Z,956.54
2022-11-19T06:39:35.114Z,956.55
2022-11-19T06:40:35.125Z,956.52
2022-11-19T06:41:35.096Z,956.55
2022-11-19T06:42:35.096Z,956.55
2022-11-19T06:43:35.101Z,956.56
2022-11-19T06:44:35.118Z,956.55
2022-11-19T06:45:35.053Z,956.52
2022-11-19T06:46:35.071Z,956.57
2022-11-19T06:47:35.047Z,956.55
2022-11-19T06:48:35.039Z,956.55
2022-11-19T06:49:35.015Z,956.54
2022-11-19T06:50:35.003Z,956.58
2022-11-19T06:51:34.987Z,956.56
2022-11-19T06:52:34.971Z,956.56
2022-11-19T06:53:35.000Z,956.57
2022-11-19T06:54:36.733Z,956.58
2022-11-19T06:55:35.952Z,956.57
2022-11-19T06:56:34.994Z,956.63
2022-11-19T06:57:34.919Z,956.66
2022-11-19T06:58:34.908Z,956.66
2022-11-19T06:59:34.901Z,956.63
2022-11-19T07:00:34.945Z,956.63
2022-11-19T07:01:34.957Z,956.67
2022-11-19T07:02:34.882Z,956.68
2022-11-19T07:03:34.858Z,956.67
2022-11-19T07:04:34.860Z,956.68
2022-11-19T07:05:34.849Z,956.68
2022-11-19T07:06:34.856Z,956.70
2022-11-19T07:07:34.941Z,956.66
2022-11-19T07:08:34.820Z,956.70
2022-11-19T07:09:34.805Z,956.71
2022-11-19T07:10:34.822Z,956.70
2022-11-19T07:11:34.799Z,956.68
2022-11-19T07:12:34.747Z,956.68
2022-11-19T07:13:34.734Z,956.70
2022-11-19T07:14:34.731Z,956.74
2022-11-19T07:15:34.717Z,956.77
2022-11-19T07:16:34.718Z,956.79
2022-11-19T07:17:34.757Z,956.76
2022-11-19T07:18:34.712Z,956.78
2022-11-19T07:19:34.669Z,956.82
2022-11-19T07:20:34.669Z,956.81
2022-11-19T07:21:34.664Z,956.77
2022-11-19T07:22:34.658Z,956.84
2022-11-19T07:23:34.621Z,956.80
2022-11-19T07:24:34.671Z,956.86
2022-11-19T07:25:34.598Z,956.79
2022-11-19T07:26:34.615Z,956.80
2022-11-19T07:27:34.590Z,956.82
2022-11-19T07:28:34.598Z,956.87
2022-11-19T07:29:34.553Z,956.85
2022-11-19T07:30:34.558Z,956.89
2022-11-19T07:31:34.548Z,956.89
2022-11-19T07:32:34.551Z,956.85
2022-11-19T07:33:34.525Z,956.85
2022-11-19T07:34:34.524Z,956.91
2022-11-19T07:35:34.489Z,956.94
2022-11-19T07:36:34.601Z,956.93
2022-11-19T07:37:34.496Z,956.91
2022-11-19T07:38:37.117Z,956.96
2022-11-19T07:39:34.464Z,956.99
2022-11-19T07:40:34.430Z,957.03
2022-11-19T07:41:34.421Z,957.03
2022-11-19T07:42:34.434Z,957.02
2022-11-19T07:43:34.432Z,957.04
2022-11-19T07:44:34.415Z,957.05
2022-11-19T07:45:34.405Z,957.05
2022-11-19T07:46:34.403Z,957.08
2022-11-19T07:47:34.406Z,957.07
2022-11-19T07:48:34.346Z,957.05
2022-11-19T07:49:34.367Z,957.09
2022-11-19T07:50:34.402Z,957.08
2022-11-19T07:51:34.336Z,957.09
2022-11-19T07:52:34.298Z,957.09
2022-11-19T07:53:34.295Z,957.03
2022-11-19T07:54:34.293Z,957.09
2022-11-19T07:55:34.268Z,957.14
2022-11-19T07:56:34.277Z,957.08
2022-11-19T07:57:34.238Z,957.07
2022-11-19T07:58:34.260Z,957.10
2022-11-19T07:59:34.661Z,957.13
2022-11-19T08:00:34.230Z,957.12
2022-11-19T08:01:34.256Z,957.10
2022-11-19T08:02:34.219Z,957.09
2022-11-19T08:03:34.172Z,957.09
2022-11-19T08:04:34.172Z,957.15
2022-11-19T08:05:34.175Z,957.08
2022-11-19T08:06:34.156Z,957.07
2022-11-19T08:07:34.183Z,957.13
2022-11-19T08:08:34.122Z,957.05
2022-11-19T08:09:34.139Z,957.09
2022-11-19T08:10:34.155Z,957.07
2022-11-19T08:11:34.092Z,957.08
2022-11-19T08:12:34.114Z,957.04
2022-11-19T08:13:34.089Z,957.06
2022-11-19T08:14:34.049Z,957.09
2022-11-19T08:15:34.036Z,957.06
2022-11-19T08:16:34.112Z,957.11
2022-11-19T08:17:34.036Z,957.06
2022-11-19T08:18:34.020Z,957.04
2022-11-19T08:19:34.017Z,957.07
2022-11-19T08:20:33.985Z,957.00
2022-11-19T08:21:33.970Z,957.08
2022-11-19T08:22:34.041Z,957.08
2022-11-19T08:23:33.950Z,957.04
2022-11-19T08:24:33.951Z,957.06
2022-11-19T08:25:33.941Z,957.09
2022-11-19T08:26:33.977Z,957.11
2022-11-19T08:27:33.905Z,957.16
2022-11-19T08:28:33.925Z,957.14
2022-11-19T08:29:33.888Z,957.10
2022-11-19T08:30:33.890Z,957.15
2022-11-19T08:31:33.858Z,957.14
2022-11-19T08:32:33.893Z,957.15
2022-11-19T08:33:33.837Z,957.11
2022-11-19T08:34:33.877Z,957.11
2022-11-19T08:35:33.826Z,957.16
2022-11-19T08:36:33.833Z,957.11
2022-11-19T08:37:33.823Z,957.16
2022-11-19T08:38:38.412Z,957.16
2022-11-19T08:39:35.206Z,957.13
2022-11-19T08:40:33.791Z,957.22
2022-11-19T08:41:33.765Z,957.16
2022-11-19T08:42:33.754Z,957.20
2022-11-19T08:43:33.724Z,957.18
2022-11-19T08:44:33.729Z,957.16
2022-11-19T08:45:33.702Z,957.19
2022-11-19T08:46:33.701Z,957.22
2022-11-19T08:47:33.706Z,957.19
2022-11-19T08:48:33.696Z,957.20
2022-11-19T08:49:33.658Z,957.16
2022-11-19T08:50:33.681Z,957.23
2022-11-19T08:51:33.640Z,957.20
2022-11-19T08:52:33.676Z,957.15
2022-11-19T08:53:33.636Z,957.18
2022-11-19T08:54:33.657Z,957.19
2022-11-19T08:55:33.602Z,957.17
2022-11-19T08:56:33.585Z,957.21
2022-11-19T08:57:33.596Z,957.22
2022-11-19T08:58:33.577Z,957.20
2022-11-19T08:59:33.584Z,957.22
2022-11-19T09:00:33.583Z,957.26
2022-11-19T09:01:33.528Z,957.22
2022-11-19T09:02:33.513Z,957.20
2022-11-19T09:03:33.511Z,957.25
2022-11-19T09:04:33.503Z,957.24
2022-11-19T09:05:33.481Z,957.24
2022-11-19T09:06:33.468Z,957.27
2022-11-19T09:07:33.536Z,957.33
2022-11-19T09:08:33.458Z,957.37
2022-11-19T09:09:33.471Z,957.29
2022-11-19T09:10:33.464Z,957.26
2022-11-19T09:11:36.210Z,957.33
2022-11-19T09:12:34.403Z,957.32
2022-11-19T09:13:33.385Z,957.35
2022-11-19T09:14:33.394Z,957.34
2022-11-19T09:15:33.394Z,957.40
2022-11-19T09:16:33.379Z,957.39
2022-11-19T09:17:33.344Z,957.36
2022-11-19T09:18:33.340Z,957.40
2022-11-19T09:19:33.317Z,957.43
2022-11-19T09:20:33.307Z,957.43
2022-11-19T09:21:33.332Z,957.42
2022-11-19T09:22:33.314Z,957.34
2022-11-19T09:23:33.272Z,957.32
2022-11-19T09:24:33.320Z,957.33
2022-11-19T09:25:33.254Z,957.34
2022-11-19T09:26:33.298Z,957.41
2022-11-19T09:27:33.243Z,957.36
2022-11-19T09:28:33.217Z,957.35
2022-11-19T09:29:33.222Z,957.37
2022-11-19T09:30:33.205Z,957.37
2022-11-19T09:31:33.216Z,957.36
2022-11-19T09:32:33.190Z,957.45
2022-11-19T09:33:33.177Z,957.46
2022-11-19T09:34:33.183Z,957.48
2022-11-19T09:35:33.139Z,957.45
2022-11-19T09:36:33.128Z,957.46
2022-11-19T09:37:33.154Z,957.46
2022-11-19T09:38:33.124Z,957.50
2022-11-19T09:39:33.120Z,957.52
2022-11-19T09:40:33.124Z,957.48
2022-11-19T09:41:33.073Z,957.52
2022-11-19T09:42:33.101Z,957.50
2022-11-19T09:43:33.055Z,957.51
2022-11-19T09:44:33.076Z,957.52
2022-11-19T09:45:33.046Z,957.50
2022-11-19T09:46:33.023Z,957.47
2022-11-19T09:47:33.062Z,957.46
2022-11-19T09:48:32.990Z,957.49
2022-11-19T09:49:32.998Z,957.50
2022-11-19T09:50:32.984Z,957.53
2022-11-19T09:51:33.046Z,957.48
2022-11-19T09:52:32.951Z,957.54
2022-11-19T09:53:32.958Z,957.49
2022-11-19T09:54:32.945Z,957.55
2022-11-19T09:55:32.930Z,957.53
2022-11-19T09:56:32.916Z,957.56
2022-11-19T09:57:32.957Z,957.52
2022-11-19T09:58:32.920Z,957.55
2022-11-19T09:59:32.871Z,957.54
2022-11-19T10:00:32.870Z,957.52
2022-11-19T10:01:32.872Z,957.53
2022-11-19T10:02:32.853Z,957.55
2022-11-19T10:03:33.897Z,957.56
2022-11-19T10:04:32.814Z,957.56
2022-11-19T10:05:32.827Z,957.51
2022-11-19T10:06:32.837Z,957.55
2022-11-19T10:07:32.855Z,957.51
2022-11-19T10:08:32.766Z,957.56
2022-11-19T10:09:32.756Z,957.55
2022-11-19T10:10:32.774Z,957.59
2022-11-19T10:11:32.750Z,957.56
2022-11-19T10:12:32.745Z,957.61
2022-11-19T10:13:32.756Z,957.67
2022-11-19T10:14:32.778Z,957.62
2022-11-19T10:15:37.388Z,957.61
2022-11-19T10:16:33.703Z,957.63
2022-11-19T10:17:32.676Z,957.59
2022-11-19T10:18:32.679Z,957.61
2022-11-19T10:19:32.689Z,957.60
2022-11-19T10:20:32.647Z,957.59
2022-11-19T10:21:32.644Z,957.58
2022-11-19T10:22:32.617Z,957.60
2022-11-19T10:23:32.598Z,957.57
2022-11-19T10:24:32.595Z,957.55
2022-11-19T10:25:32.577Z,957.52
2022-11-19T10:26:32.632Z,957.47
2022-11-19T10:27:32.580Z,957.48
2022-11-19T10:28:32.561Z,957.51
2022-11-19T10:29:32.556Z,957.52
2022-11-19T10:30:32.551Z,957.47
2022-11-19T10:31:32.549Z,957.41
2022-11-19T10:32:32.495Z,957.47
2022-11-19T10:33:32.508Z,957.45
2022-11-19T10:34:32.496Z,957.50
2022-11-19T10:35:32.487Z,957.42
2022-11-19T10:36:32.480Z,957.45
2022-11-19T10:37:32.455Z,957.43
2022-11-19T10:38:32.428Z,957.43
2022-11-19T10:39:32.446Z,957.42
2022-11-19T10:40:32.445Z,957.43
2022-11-19T10:41:32.428Z,957.40
2022-11-19T10:42:32.424Z,957.41
2022-11-19T10:43:32.389Z,957.43
2022-11-19T10:44:32.373Z,957.43
2022-11-19T10:45:32.370Z,957.43
2022-11-19T10:46:32.391Z,957.42
2022-11-19T10:47:32.339Z,957.44
2022-11-19T10:48:32.404Z,957.48
2022-11-19T10:49:32.365Z,957.48
2022-11-19T10:50:32.295Z,957.54
2022-11-19T10:51:32.310Z,957.48
2022-11-19T10:52:32.316Z,957.56
2022-11-19T10:53:32.285Z,957.49
2022-11-19T10:54:32.255Z,957.52
2022-11-19T10:55:32.314Z,957.54
2022-11-19T10:56:32.300Z,957.52
2022-11-19T10:57:32.235Z,957.52
2022-11-19T10:58:32.219Z,957.50
2022-11-19T10:59:32.221Z,957.53
2022-11-19T11:00:32.179Z,957.49
2022-11-19T11:01:32.246Z,957.45
2022-11-19T11:02:32.187Z,957.53
2022-11-19T11:03:32.165Z,957.48
2022-11-19T11:04:32.149Z,957.51
2022-11-19T11:05:32.157Z,957.52
2022-11-19T11:06:32.130Z,957.49
2022-11-19T11:07:32.123Z,957.52
2022-11-19T11:08:32.090Z,957.47
2022-11-19T11:09:32.095Z,957.45
2022-11-19T11:10:32.132Z,957.46
2022-11-19T11:11:32.111Z,957.53
2022-11-19T11:12:32.044Z,957.49
2022-11-19T11:13:32.042Z,957.45
2022-11-19T11:14:32.027Z,957.47
2022-11-19T11:15:32.055Z,957.46
2022-11-19T11:16:37.574Z,957.47
2022-11-19T11:17:33.025Z,957.42
2022-11-19T11:18:31.995Z,957.45
2022-11-19T11:19:32.003Z,957.47
2022-11-19T11:20:31.989Z,957.44
2022-11-19T11:21:31.955Z,957.38
2022-11-19T11:22:31.963Z,957.39
2022-11-19T11:23:31.925Z,957.32
2022-11-19T11:24:31.918Z,957.34
2022-11-19T11:25:31.933Z,957.31
2022-11-19T11:26:31.915Z,957.36
2022-11-19T11:27:31.934Z,957.34
2022-11-19T11:28:31.864Z,957.30
2022-11-19T11:29:31.853Z,957.30
2022-11-19T11:30:31.856Z,957.30
2022-11-19T11:31:31.862Z,957.29
2022-11-19T11:32:31.825Z,957.29
2022-11-19T11:33:31.807Z,957.28
2022-11-19T11:34:31.812Z,957.28
2022-11-19T11:35:31.788Z,957.30
2022-11-19T11:36:31.880Z,957.29
2022-11-19T11:37:31.782Z,957.28
2022-11-19T11:38:31.783Z,957.27
2022-11-19T11:39:31.740Z,957.23
2022-11-19T11:40:31.800Z,957.23
2022-11-19T11:42:32.721Z,957.21
2022-11-19T11:43:31.731Z,957.19
2022-11-19T11:44:31.727Z,957.15
2022-11-19T11:45:31.677Z,957.16
2022-11-19T11:46:31.673Z,957.15
2022-11-19T11:47:31.659Z,957.11
2022-11-19T11:48:31.637Z,957.14
2022-11-19T11:49:31.663Z,957.15
2022-11-19T11:50:31.636Z,957.10
2022-11-19T11:51:31.653Z,957.13
2022-11-19T11:52:31.615Z,957.09
2022-11-19T11:53:31.598Z,957.12
2022-11-19T11:54:31.578Z,957.09
2022-11-19T11:55:31.600Z,957.08
2022-11-19T11:56:31.547Z,957.12
2022-11-19T11:57:31.552Z,957.02
2022-11-19T11:58:31.525Z,957.13
2022-11-19T11:59:31.542Z,957.08
2022-11-19T12:00:31.516Z,957.10
2022-11-19T12:01:31.507Z,957.08
2022-11-19T12:02:31.646Z,957.12
2022-11-19T12:03:31.471Z,957.09
2022-11-19T12:04:31.463Z,957.11
2022-11-19T12:05:31.494Z,957.13
2022-11-19T12:06:31.558Z,957.15
2022-11-19T12:07:31.531Z,957.19
2022-11-19T12:08:31.425Z,957.18
2022-11-19T12:09:31.404Z,957.17
2022-11-19T12:10:31.409Z,957.17
2022-11-19T12:11:31.411Z,957.24
2022-11-19T12:12:31.383Z,957.20
2022-11-19T12:13:31.396Z,957.17
2022-11-19T12:14:31.350Z,957.17
2022-11-19T12:15:31.338Z,957.14
2022-11-19T12:16:31.365Z,957.15
2022-11-19T12:17:31.349Z,957.21
2022-11-19T12:18:31.341Z,957.15
2022-11-19T12:19:31.292Z,957.13
2022-11-19T12:20:31.278Z,957.13
2022-11-19T12:21:31.362Z,957.09
2022-11-19T12:22:31.293Z,957.17
2022-11-19T12:23:31.269Z,957.11
2022-11-19T12:24:31.269Z,957.10
2022-11-19T12:25:31.223Z,957.11
2022-11-19T12:26:31.285Z,957.07
2022-11-19T12:27:31.216Z,957.10
2022-11-19T12:28:31.191Z,957.12
2022-11-19T12:29:31.244Z,957.09